createdAt,value
2018-06-11T00:01:16.333Z,99.90
2018-06-11T00:03:44.130Z,99.90
2018-06-11T00:06:11.863Z,99.90
2018-06-11T00:08:39.622Z,99.90
2018-06-11T00:11:07.364Z,99.90
2018-06-11T00:13:35.063Z,99.90
2018-06-11T00:16:02.775Z,99.90
2018-06-11T00:18:30.485Z,99.90
2018-06-11T00:20:58.222Z,99.90
2018-06-11T00:23:25.975Z,99.90
2018-06-11T00:25:53.653Z,99.90
2018-06-11T00:28:21.385Z,99.90
2018-06-11T00:30:49.101Z,99.90
2018-06-11T00:33:16.798Z,99.90
2018-06-11T00:35:44.488Z,99.90
2018-06-11T00:38:12.162Z,99.90
2018-06-11T00:40:39.906Z,99.90
2018-06-11T00:43:07.573Z,99.90
2018-06-11T00:45:35.309Z,99.90
2018-06-11T00:48:02.984Z,99.90
2018-06-11T00:50:30.708Z,99.90
2018-06-11T00:52:58.387Z,99.90
2018-06-11T00:55:37.459Z,99.90
2018-06-11T00:58:05.140Z,99.90
2018-06-11T01:00:32.925Z,99.90
2018-06-11T01:03:00.595Z,99.90
2018-06-11T01:05:28.338Z,99.90
2018-06-11T01:07:56.089Z,99.90
2018-06-11T01:10:24.151Z,99.90
2018-06-11T01:12:51.810Z,99.90
2018-06-11T01:15:19.471Z,99.90
2018-06-11T01:17:47.204Z,99.90
2018-06-11T01:20:14.864Z,99.90
2018-06-11T01:22:42.550Z,99.90
2018-06-11T01:25:10.294Z,99.90
2018-06-11T01:27:37.972Z,99.90
2018-06-11T01:30:05.670Z,99.90
2018-06-11T01:32:33.375Z,99.90
2018-06-11T01:35:01.035Z,99.90
2018-06-11T01:37:28.747Z,99.90
2018-06-11T01:39:56.385Z,99.90
2018-06-11T01:42:24.133Z,99.90
2018-06-11T01:44:51.837Z,99.90
2018-06-11T01:47:19.706Z,99.90
2018-06-11T01:49:47.432Z,99.90
2018-06-11T01:52:15.141Z,99.90
2018-06-11T01:54:42.838Z,99.90
2018-06-11T01:57:10.553Z,99.90
2018-06-11T01:59:38.259Z,99.90
2018-06-11T02:02:05.967Z,99.90
2018-06-11T02:04:33.643Z,99.90
2018-06-11T02:07:01.394Z,99.90
2018-06-11T02:09:29.046Z,99.90
2018-06-11T02:11:56.748Z,99.90
2018-06-11T02:14:24.408Z,99.90
2018-06-11T02:16:52.168Z,99.90
2018-06-11T02:19:19.835Z,99.90
2018-06-11T02:21:47.521Z,99.90
2018-06-11T02:24:15.164Z,99.90
2018-06-11T02:26:42.865Z,99.90
2018-06-11T02:29:10.564Z,99.90
2018-06-11T02:31:38.300Z,99.90
2018-06-11T02:34:05.954Z,99.90
2018-06-11T02:36:33.640Z,99.90
2018-06-11T02:39:01.357Z,99.90
2018-06-11T02:41:29.059Z,99.90
2018-06-11T02:43:56.764Z,99.90
2018-06-11T02:46:24.442Z,99.90
2018-06-11T02:48:52.201Z,99.90
2018-06-11T02:51:19.963Z,99.90
2018-06-11T02:53:47.700Z,99.90
2018-06-11T02:56:15.615Z,99.90
2018-06-11T02:58:43.325Z,99.90
2018-06-11T03:01:11.072Z,99.90
2018-06-11T03:06:06.397Z,99.90
2018-06-11T03:08:34.106Z,99.90
2018-06-11T03:11:01.828Z,99.90
2018-06-11T03:13:29.553Z,99.90
2018-06-11T03:15:57.247Z,99.90
2018-06-11T03:18:25.019Z,99.90
2018-06-11T03:20:52.679Z,99.90
2018-06-11T03:23:20.402Z,99.90
2018-06-11T03:25:48.100Z,99.90
2018-06-11T03:28:15.737Z,99.90
2018-06-11T03:30:43.445Z,99.90
2018-06-11T03:33:11.144Z,99.90
2018-06-11T03:35:38.842Z,99.90
2018-06-11T03:38:06.584Z,99.90
2018-06-11T03:40:34.302Z,99.90
2018-06-11T03:43:02.048Z,99.90
2018-06-11T03:45:29.761Z,99.90
2018-06-11T03:47:57.456Z,99.90
2018-06-11T03:50:25.102Z,99.90
2018-06-11T03:52:52.785Z,99.90
2018-06-11T03:55:20.448Z,99.90
2018-06-11T03:57:48.188Z,99.90
2018-06-11T04:00:16.264Z,99.90
2018-06-11T04:02:44.015Z,99.90
2018-06-11T04:07:39.386Z,99.90
2018-06-11T04:10:07.088Z,99.90
2018-06-11T04:12:34.776Z,99.90
2018-06-11T04:15:02.482Z,99.90
2018-06-11T04:17:30.245Z,99.90
2018-06-11T04:19:57.931Z,99.90
2018-06-11T04:22:25.673Z,99.90
2018-06-11T04:24:54.245Z,99.90
2018-06-11T04:27:21.940Z,99.90
2018-06-11T04:29:49.685Z,99.90
2018-06-11T04:32:17.388Z,99.90
2018-06-11T04:34:45.130Z,99.90
2018-06-11T04:37:12.862Z,99.90
2018-06-11T04:39:40.630Z,99.90
2018-06-11T04:42:08.285Z,99.90
2018-06-11T04:44:36.072Z,99.90
2018-06-11T04:47:03.761Z,99.90
2018-06-11T04:49:31.494Z,99.90
2018-06-11T04:51:59.152Z,99.90
2018-06-11T04:54:26.837Z,99.90
2018-06-11T04:56:54.581Z,99.90
2018-06-11T04:59:22.266Z,99.90
2018-06-11T05:01:49.956Z,99.90
2018-06-11T05:04:17.640Z,99.90
2018-06-11T05:06:45.339Z,99.90
2018-06-11T05:09:13.021Z,99.90
2018-06-11T05:11:40.789Z,99.90
2018-06-11T05:14:08.445Z,99.90
2018-06-11T05:16:36.153Z,99.90
2018-06-11T05:19:03.831Z,99.90
2018-06-11T05:21:31.574Z,99.90
2018-06-11T05:23:59.215Z,99.90
2018-06-11T05:26:26.947Z,99.90
2018-06-11T05:28:54.854Z,99.90
2018-06-11T05:31:22.586Z,99.90
2018-06-11T05:33:50.306Z,99.90
2018-06-11T05:36:18.027Z,99.90
2018-06-11T05:38:45.703Z,99.90
2018-06-11T05:41:13.405Z,99.90
2018-06-11T05:43:41.106Z,99.90
2018-06-11T05:46:08.838Z,99.90
2018-06-11T05:48:36.532Z,99.90
2018-06-11T05:51:04.262Z,99.90
2018-06-11T05:53:31.935Z,99.90
2018-06-11T05:55:59.688Z,99.90
2018-06-11T05:58:27.377Z,99.90
2018-06-11T06:03:22.740Z,99.90
2018-06-11T06:05:50.413Z,99.90
2018-06-11T06:08:18.126Z,99.90
2018-06-11T06:10:45.842Z,99.90
2018-06-11T06:13:13.584Z,99.90
2018-06-11T06:15:41.312Z,99.90
2018-06-11T06:18:09.028Z,99.90
2018-06-11T06:20:36.754Z,99.90
2018-06-11T06:23:04.566Z,99.90
2018-06-11T06:25:32.339Z,99.90
2018-06-11T06:28:00.044Z,99.90
2018-06-11T06:30:27.682Z,99.90
2018-06-11T06:32:55.371Z,99.90
2018-06-11T06:35:23.050Z,99.90
2018-06-11T06:37:50.820Z,99.90
2018-06-11T06:40:18.542Z,99.90
2018-06-11T06:42:46.282Z,99.90
2018-06-11T06:45:13.968Z,99.90
2018-06-11T06:47:41.690Z,99.90
2018-06-11T06:50:09.470Z,99.90
2018-06-11T06:52:37.321Z,99.90
2018-06-11T06:55:05.063Z,99.90
2018-06-11T06:57:32.754Z,99.90
2018-06-11T07:00:00.442Z,99.90
2018-06-11T07:02:28.124Z,99.90
2018-06-11T07:04:55.847Z,99.90
2018-06-11T07:07:23.554Z,99.90
2018-06-11T07:09:51.262Z,99.90
2018-06-11T07:12:18.947Z,99.90
2018-06-11T07:14:46.688Z,99.90
2018-06-11T07:17:14.389Z,99.90
2018-06-11T07:19:42.051Z,99.90
2018-06-11T07:22:09.782Z,99.90
2018-06-11T07:24:37.441Z,99.90
2018-06-11T07:27:05.251Z,99.90
2018-06-11T07:29:32.954Z,99.90
2018-06-11T07:32:00.767Z,99.90
2018-06-11T07:34:28.522Z,99.90
2018-06-11T07:36:56.239Z,99.90
2018-06-11T07:39:23.928Z,99.90
2018-06-11T07:41:51.696Z,99.90
2018-06-11T07:44:19.387Z,99.90
2018-06-11T07:46:47.054Z,99.90
2018-06-11T07:49:14.771Z,99.90
2018-06-11T07:51:42.446Z,99.90
2018-06-11T07:54:10.251Z,99.90
2018-06-11T07:56:37.992Z,99.90
2018-06-11T07:59:05.709Z,99.90
2018-06-11T08:01:33.372Z,99.90
2018-06-11T08:04:01.120Z,99.90
2018-06-11T08:06:28.812Z,99.90
2018-06-11T08:08:56.528Z,99.90
2018-06-11T08:11:24.218Z,99.90
2018-06-11T08:13:51.942Z,99.90
2018-06-11T08:16:19.648Z,99.90
2018-06-11T08:18:47.335Z,99.90
2018-06-11T08:21:15.065Z,99.90
2018-06-11T08:23:42.721Z,99.90
2018-06-11T08:26:10.470Z,99.90
2018-06-11T08:28:38.206Z,99.90
2018-06-11T08:31:06.048Z,99.90
2018-06-11T08:33:33.754Z,99.90
2018-06-11T08:36:01.449Z,99.90
2018-06-11T08:38:29.178Z,99.90
2018-06-11T08:40:56.867Z,99.90
2018-06-11T08:43:24.618Z,99.90
2018-06-11T08:45:52.326Z,99.90
2018-06-11T08:48:20.038Z,99.90
2018-06-11T08:50:47.791Z,99.90
2018-06-11T08:53:15.579Z,99.90
2018-06-11T08:55:43.254Z,99.90
2018-06-11T08:58:10.915Z,99.90
2018-06-11T09:00:38.641Z,99.90
2018-06-11T09:03:06.318Z,99.90
2018-06-11T09:05:34.036Z,99.90
2018-06-11T09:08:01.720Z,99.90
2018-06-11T09:10:29.432Z,99.90
2018-06-11T09:12:57.101Z,99.90
2018-06-11T09:15:24.829Z,99.90
2018-06-11T09:17:52.610Z,99.90
2018-06-11T09:20:20.321Z,99.90
2018-06-11T09:22:48.057Z,99.90
2018-06-11T09:25:15.733Z,99.90
2018-06-11T09:27:43.437Z,99.90
2018-06-11T09:30:11.101Z,99.90
2018-06-11T09:32:38.889Z,99.90
2018-06-11T09:35:06.594Z,99.90
2018-06-11T09:37:34.587Z,99.90
2018-06-11T09:40:02.248Z,99.90
2018-06-11T09:42:30.006Z,99.90
2018-06-11T09:44:57.676Z,99.90
2018-06-11T09:47:25.413Z,99.90
2018-06-11T09:49:53.092Z,99.90
2018-06-11T09:52:20.838Z,99.90
2018-06-11T09:54:48.633Z,99.90
2018-06-11T09:57:16.294Z,99.90
2018-06-11T09:59:43.997Z,99.90
2018-06-11T10:02:11.639Z,99.90
2018-06-11T10:04:39.386Z,99.90
2018-06-11T10:07:07.068Z,99.90
2018-06-11T10:09:34.917Z,99.90
2018-06-11T10:12:02.652Z,99.90
2018-06-11T10:14:30.412Z,99.90
2018-06-11T10:16:58.112Z,99.90
2018-06-11T10:19:25.862Z,99.90
2018-06-11T10:21:53.549Z,99.90
2018-06-11T10:24:21.267Z,99.90
2018-06-11T10:26:48.989Z,99.90
2018-06-11T10:29:16.673Z,99.90
2018-06-11T10:31:44.375Z,99.90
2018-06-11T10:34:12.159Z,99.90
2018-06-11T10:36:39.899Z,99.90
2018-06-11T10:39:07.922Z,99.90
2018-06-11T10:41:35.627Z,99.90
2018-06-11T10:44:03.420Z,99.90
2018-06-11T10:46:31.148Z,99.90
2018-06-11T10:48:58.807Z,99.90
2018-06-11T10:51:26.587Z,99.90
2018-06-11T10:53:54.266Z,99.90
2018-06-11T10:56:23.726Z,99.90
2018-06-11T10:58:51.474Z,99.90
2018-06-11T11:01:19.109Z,99.90
2018-06-11T11:03:46.810Z,99.90
2018-06-11T11:06:14.522Z,99.90
2018-06-11T11:08:42.253Z,99.90
2018-06-11T11:11:09.923Z,99.90
2018-06-11T11:13:37.578Z,99.90
2018-06-11T11:16:05.259Z,99.90
2018-06-11T11:18:32.928Z,99.90
2018-06-11T11:21:00.628Z,99.90
2018-06-11T11:23:28.339Z,99.90
2018-06-11T11:25:56.019Z,99.90
2018-06-11T11:28:23.742Z,99.90
2018-06-11T11:30:51.399Z,99.90
2018-06-11T11:33:19.106Z,99.90
2018-06-11T11:35:46.802Z,99.90
2018-06-11T11:38:14.564Z,99.90
2018-06-11T11:40:42.299Z,99.90
2018-06-11T11:43:09.976Z,99.90
2018-06-11T11:45:37.634Z,99.90
2018-06-11T11:48:05.326Z,99.90
2018-06-11T11:50:32.966Z,99.90
2018-06-11T11:55:28.317Z,99.90
2018-06-11T11:57:56.049Z,99.90
2018-06-11T12:00:23.737Z,99.90
2018-06-11T12:02:51.437Z,99.90
2018-06-11T12:05:19.094Z,99.90
2018-06-11T12:07:46.805Z,99.90
2018-06-11T12:10:14.476Z,99.90
2018-06-11T12:12:42.136Z,99.90
2018-06-11T12:15:09.765Z,99.90
2018-06-11T12:17:37.470Z,99.90
2018-06-11T12:20:05.177Z,99.90
2018-06-11T12:22:32.802Z,99.90
2018-06-11T12:25:00.490Z,99.90
2018-06-11T12:27:28.171Z,99.90
2018-06-11T12:29:55.890Z,99.90
2018-06-11T12:32:23.577Z,99.90
2018-06-11T12:34:51.246Z,99.90
2018-06-11T12:37:18.945Z,99.90
2018-06-11T12:39:46.744Z,99.90
2018-06-11T12:42:14.370Z,99.90
2018-06-11T12:44:42.064Z,99.90
2018-06-11T12:47:09.737Z,99.90
2018-06-11T12:49:37.406Z,99.90
2018-06-11T12:52:05.138Z,99.90
2018-06-11T12:54:32.869Z,99.90
2018-06-11T12:57:00.537Z,99.90
2018-06-11T12:59:28.245Z,99.90
2018-06-11T13:01:55.911Z,99.90
2018-06-11T13:04:23.723Z,99.90
2018-06-11T13:06:51.419Z,99.90
2018-06-11T13:09:19.100Z,99.90
2018-06-11T13:11:46.756Z,99.90
2018-06-11T13:14:14.445Z,99.90
2018-06-11T13:16:42.122Z,99.90
2018-06-11T13:19:09.835Z,99.90
2018-06-11T13:21:37.492Z,99.90
2018-06-11T13:24:05.343Z,99.90
2018-06-11T13:26:33.021Z,99.90
2018-06-11T13:29:00.677Z,99.90
2018-06-11T13:31:28.345Z,99.90
2018-06-11T13:33:56.092Z,99.90
2018-06-11T13:36:23.777Z,99.90
2018-06-11T13:38:51.530Z,99.90
2018-06-11T13:41:19.217Z,99.90
2018-06-11T13:43:46.900Z,99.90
2018-06-11T13:46:14.610Z,99.90
2018-06-11T13:48:42.258Z,99.90
2018-06-11T13:51:09.963Z,99.90
2018-06-11T13:53:37.617Z,99.90
2018-06-11T13:56:05.382Z,99.90
2018-06-11T13:58:33.051Z,99.90
2018-06-11T14:01:00.760Z,99.90
2018-06-11T14:03:28.440Z,99.90
2018-06-11T14:05:56.265Z,99.90
2018-06-11T14:08:23.979Z,99.90
2018-06-11T14:10:51.664Z,99.90
2018-06-11T14:13:19.412Z,99.90
2018-06-11T14:15:47.229Z,99.90
2018-06-11T14:18:14.892Z,99.90
2018-06-11T14:20:42.604Z,99.90
2018-06-11T14:23:10.319Z,99.90
2018-06-11T14:25:38.922Z,99.90
2018-06-11T14:28:06.594Z,99.90
2018-06-11T14:30:34.320Z,99.90
2018-06-11T14:33:02.004Z,99.50
2018-06-11T14:35:29.743Z,99.30
2018-06-11T14:37:57.406Z,99.90
2018-06-11T14:40:25.123Z,99.60
2018-06-11T14:42:52.778Z,99.60
2018-06-11T14:45:20.531Z,99.90
2018-06-11T14:47:48.260Z,98.60
2018-06-11T14:50:16.238Z,98.90
2018-06-11T14:52:43.922Z,99.50
2018-06-11T14:55:11.653Z,98.80
2018-06-11T14:57:39.325Z,99.60
2018-06-11T15:00:07.337Z,98.90
2018-06-11T15:02:35.048Z,98.90
2018-06-11T15:05:02.757Z,98.20
2018-06-11T15:07:30.442Z,98.10
2018-06-11T15:12:25.744Z,97.40
2018-06-11T15:14:53.453Z,96.80
2018-06-11T15:17:21.168Z,95.70
2018-06-11T15:19:48.840Z,96.00
2018-06-11T15:22:16.569Z,95.20
2018-06-11T15:24:44.251Z,94.90
2018-06-11T15:27:11.945Z,95.00
2018-06-11T15:29:39.642Z,94.90
2018-06-11T15:32:07.347Z,93.10
2018-06-11T15:34:35.023Z,93.50
2018-06-11T15:37:02.746Z,91.80
2018-06-11T15:39:33.539Z,91.60
2018-06-11T15:42:01.238Z,90.60
2018-06-11T15:44:28.929Z,90.00
2018-06-11T15:46:56.693Z,85.60
2018-06-11T15:49:24.354Z,83.50
2018-06-11T15:51:52.057Z,81.80
2018-06-11T15:54:19.754Z,82.60
2018-06-11T15:56:47.530Z,79.90
2018-06-11T15:59:15.205Z,80.30
2018-06-11T16:01:42.939Z,79.70
2018-06-11T16:04:10.715Z,80.90
2018-06-11T16:06:38.475Z,78.40
2018-06-11T16:09:06.961Z,76.40
2018-06-11T16:11:34.745Z,73.70
2018-06-11T16:14:02.464Z,76.00
2018-06-11T16:16:30.218Z,74.90
2018-06-11T16:18:57.907Z,76.00
2018-06-11T16:21:25.594Z,75.50
2018-06-11T16:23:53.264Z,76.90
2018-06-11T16:26:20.978Z,77.90
2018-06-11T16:28:48.684Z,76.10
2018-06-11T16:31:16.531Z,77.80
2018-06-11T16:33:44.263Z,78.50
2018-06-11T16:36:12.020Z,78.70
2018-06-11T16:38:39.744Z,78.50
2018-06-11T16:41:07.429Z,78.20
2018-06-11T16:43:35.141Z,75.90
2018-06-11T16:46:02.793Z,72.70
2018-06-11T16:48:30.568Z,72.10
2018-06-11T16:50:58.244Z,72.60
2018-06-11T16:55:53.694Z,73.60
2018-06-11T16:58:21.411Z,73.20
2018-06-11T17:00:49.089Z,74.00
2018-06-11T17:03:16.787Z,73.60
2018-06-11T17:05:44.479Z,71.70
2018-06-11T17:08:12.179Z,72.10
2018-06-11T17:10:39.823Z,71.90
2018-06-11T17:13:07.572Z,71.80
2018-06-11T17:15:35.303Z,71.90
2018-06-11T17:18:03.034Z,71.70
2018-06-11T17:20:30.713Z,70.80
2018-06-11T17:22:58.503Z,72.40
2018-06-11T17:25:26.240Z,72.90
2018-06-11T17:27:54.040Z,72.60
2018-06-11T17:30:21.788Z,73.30
2018-06-11T17:32:49.532Z,72.90
2018-06-11T17:35:17.292Z,72.00
2018-06-11T17:37:45.054Z,72.50
2018-06-11T17:40:12.800Z,72.80
2018-06-11T17:42:40.493Z,73.70
2018-06-11T17:45:08.210Z,73.00
2018-06-11T17:47:35.924Z,73.40
2018-06-11T17:50:03.650Z,74.30
2018-06-11T17:52:31.335Z,74.60
2018-06-11T17:54:59.068Z,73.40
2018-06-11T17:57:26.805Z,72.50
2018-06-11T17:59:54.528Z,73.10
2018-06-11T18:02:22.181Z,72.70
2018-06-11T18:04:49.934Z,74.10
2018-06-11T18:07:17.618Z,74.30
2018-06-11T18:09:45.325Z,75.10
2018-06-11T18:12:13.017Z,75.00
2018-06-11T18:14:40.927Z,76.40
2018-06-11T18:17:08.642Z,77.60
2018-06-11T18:19:36.438Z,76.90
2018-06-11T18:22:04.184Z,77.00
2018-06-11T18:24:31.940Z,78.10
2018-06-11T18:26:59.642Z,79.90
2018-06-11T18:29:27.383Z,81.10
2018-06-11T18:31:55.048Z,81.90
2018-06-11T18:34:22.737Z,82.60
2018-06-11T18:36:50.433Z,82.70
2018-06-11T18:39:18.185Z,83.10
2018-06-11T18:41:45.898Z,82.70
2018-06-11T18:44:13.622Z,83.40
2018-06-11T18:46:41.348Z,82.30
2018-06-11T18:49:09.070Z,81.90
2018-06-11T18:51:36.774Z,82.00
2018-06-11T18:54:04.553Z,83.20
2018-06-11T18:56:32.230Z,83.20
2018-06-11T18:58:59.945Z,84.10
2018-06-11T19:01:27.667Z,84.70
2018-06-11T19:03:55.416Z,85.70
2018-06-11T19:06:23.197Z,86.40
2018-06-11T19:08:50.960Z,86.90
2018-06-11T19:11:18.703Z,87.60
2018-06-11T19:13:46.466Z,87.90
2018-06-11T19:16:14.154Z,88.60
2018-06-11T19:18:41.889Z,89.30
2018-06-11T19:21:09.623Z,89.50
2018-06-11T19:23:37.342Z,90.50
2018-06-11T19:26:05.191Z,90.80
2018-06-11T19:28:32.901Z,91.10
2018-06-11T19:31:00.655Z,91.20
2018-06-11T19:33:28.354Z,91.60
2018-06-11T19:35:56.112Z,91.70
2018-06-11T19:38:23.909Z,92.20
2018-06-11T19:40:51.744Z,92.50
2018-06-11T19:43:19.412Z,93.10
2018-06-11T19:45:47.118Z,93.70
2018-06-11T19:48:14.868Z,94.20
2018-06-11T19:50:42.601Z,94.70
2018-06-11T19:53:10.346Z,95.20
2018-06-11T19:55:38.414Z,95.50
2018-06-11T19:58:06.177Z,95.90
2018-06-11T20:00:34.087Z,96.10
2018-06-11T20:03:01.987Z,96.60
2018-06-11T20:05:29.718Z,96.80
2018-06-11T20:07:57.457Z,97.20
2018-06-11T20:10:25.191Z,97.70
2018-06-11T20:12:52.958Z,97.90
2018-06-11T20:15:20.726Z,98.30
2018-06-11T20:17:48.407Z,98.70
2018-06-11T20:20:16.079Z,99.00
2018-06-11T20:22:43.811Z,99.70
2018-06-11T20:25:11.491Z,99.90
2018-06-11T20:27:39.133Z,99.90
2018-06-11T20:30:06.825Z,99.90
2018-06-11T20:32:34.715Z,99.90
2018-06-11T20:35:02.621Z,99.90
2018-06-11T20:37:30.595Z,99.90
2018-06-11T20:39:58.542Z,99.90
2018-06-11T20:42:26.402Z,99.90
2018-06-11T20:44:54.308Z,99.90
2018-06-11T20:47:22.136Z,99.90
2018-06-11T20:49:50.637Z,99.90
2018-06-11T20:52:18.349Z,99.90
2018-06-11T20:54:46.093Z,99.90
2018-06-11T20:57:13.873Z,99.90
2018-06-11T20:59:41.617Z,99.90
2018-06-11T21:02:16.011Z,99.90
2018-06-11T21:04:43.782Z,99.90
2018-06-11T21:07:11.525Z,99.90
2018-06-11T21:09:39.232Z,99.90
2018-06-11T21:12:07.070Z,99.90
2018-06-11T21:14:34.798Z,99.90
2018-06-11T21:17:02.602Z,99.90
2018-06-11T21:19:30.323Z,99.90
2018-06-11T21:21:58.070Z,99.90
2018-06-11T21:24:25.812Z,99.90
2018-06-11T21:26:53.595Z,99.90
2018-06-11T21:29:21.273Z,99.90
2018-06-11T21:31:49.088Z,99.90
2018-06-11T21:34:16.791Z,99.90
2018-06-11T21:36:44.540Z,99.90
2018-06-11T21:39:12.284Z,99.90
2018-06-11T21:41:40.242Z,99.90
2018-06-11T21:44:07.931Z,99.90
2018-06-11T21:46:35.686Z,99.90
2018-06-11T21:49:03.603Z,99.90
2018-06-11T21:51:31.352Z,99.90
2018-06-11T21:53:59.071Z,99.90
2018-06-11T21:56:27.185Z,99.90
2018-06-11T21:58:54.868Z,99.90
2018-06-11T22:01:22.677Z,99.90
2018-06-11T22:06:18.217Z,99.90
2018-06-11T22:08:46.137Z,99.90
2018-06-11T22:11:13.834Z,99.90
2018-06-11T22:13:41.958Z,99.90
2018-06-11T22:16:09.812Z,99.90
2018-06-11T22:18:37.515Z,99.90
2018-06-11T22:21:05.222Z,99.90
2018-06-11T22:23:32.979Z,99.90
2018-06-11T22:28:28.429Z,99.90
2018-06-11T22:30:56.141Z,99.90
2018-06-11T22:33:23.865Z,99.90
2018-06-11T22:35:51.516Z,99.90
2018-06-11T22:38:19.260Z,99.90
2018-06-11T22:40:46.918Z,99.90
2018-06-11T22:43:14.598Z,99.90
2018-06-11T22:45:42.291Z,99.90
2018-06-11T22:48:10.011Z,99.90
2018-06-11T22:50:37.679Z,99.90
2018-06-11T22:53:05.373Z,99.90
2018-06-11T22:55:33.073Z,99.90
2018-06-11T22:58:01.193Z,99.90
2018-06-11T23:00:33.850Z,99.90
2018-06-11T23:03:01.897Z,99.90
2018-06-11T23:05:29.513Z,99.90
2018-06-11T23:07:57.176Z,99.90
2018-06-11T23:10:24.776Z,99.90
2018-06-11T23:12:52.389Z,99.90
2018-06-11T23:15:20.105Z,99.90
2018-06-11T23:17:47.865Z,99.90
2018-06-11T23:20:23.849Z,99.90
2018-06-11T23:22:51.415Z,99.90
2018-06-11T23:27:46.588Z,99.90
2018-06-11T23:30:14.259Z,99.90
2018-06-11T23:32:41.826Z,99.90
2018-06-11T23:35:09.418Z,99.90
2018-06-11T23:37:37.020Z,99.90
2018-06-11T23:40:04.639Z,99.90
2018-06-11T23:42:32.225Z,99.90
2018-06-11T23:44:59.816Z,99.90
2018-06-11T23:47:27.382Z,99.90
2018-06-11T23:49:54.947Z,99.90
2018-06-11T23:52:22.530Z,99.90
2018-06-11T23:54:50.108Z,99.90
2018-06-11T23:57:17.697Z,99.90
2018-06-11T23:59:45.271Z,99.90
